createdAt,value
2023-02-27T00:00:17.267Z,63.08
2023-02-27T00:03:20.583Z,62.76
2023-02-27T00:06:24.371Z,62.86
2023-02-27T00:09:27.889Z,63.28
2023-02-27T00:12:31.989Z,63.29
2023-02-27T00:15:35.616Z,63.22
2023-02-27T00:18:37.952Z,63.70
2023-02-27T00:21:41.439Z,63.36
2023-02-27T00:24:47.067Z,64.14
2023-02-27T00:27:51.032Z,64.10
2023-02-27T00:30:55.359Z,64.15
2023-02-27T00:33:58.302Z,64.48
2023-02-27T00:37:01.198Z,65.90
2023-02-27T00:40:09.303Z,64.63
2023-02-27T00:43:16.523Z,65.31
2023-02-27T00:46:20.396Z,65.82
2023-02-27T00:49:25.382Z,64.79
2023-02-27T00:52:29.100Z,65.12
2023-02-27T00:55:34.121Z,65.49
2023-02-27T00:58:41.050Z,65.17
2023-02-27T01:01:46.597Z,66.34
2023-02-27T01:04:49.434Z,65.79
2023-02-27T01:07:52.890Z,66.36
2023-02-27T01:10:56.222Z,65.88
2023-02-27T01:14:07.650Z,66.27
2023-02-27T01:17:16.796Z,66.57
2023-02-27T01:20:27.890Z,67.29
2023-02-27T01:23:32.666Z,65.84
2023-02-27T01:26:41.676Z,65.49
2023-02-27T01:30:00.896Z,64.86
2023-02-27T01:33:04.319Z,66.15
2023-02-27T01:36:13.449Z,65.32
2023-02-27T01:39:18.696Z,65.39
2023-02-27T01:42:35.086Z,66.24
2023-02-27T01:45:46.947Z,64.68
2023-02-27T01:48:50.774Z,65.48
2023-02-27T01:52:06.433Z,64.18
2023-02-27T01:55:13.457Z,64.96
2023-02-27T01:58:21.282Z,64.09
2023-02-27T02:01:27.997Z,63.54
2023-02-27T02:04:40.148Z,63.63
2023-02-27T02:07:50.612Z,63.48
2023-02-27T02:11:06.290Z,64.09
2023-02-27T02:14:19.218Z,62.78
2023-02-27T02:17:27.122Z,62.68
2023-02-27T02:21:00.208Z,62.99
2023-02-27T02:24:18.773Z,63.13
2023-02-27T02:27:28.108Z,62.16
2023-02-27T02:30:37.122Z,62.61
2023-02-27T02:34:04.073Z,62.68
2023-02-27T02:37:41.042Z,62.52
2023-02-27T02:41:09.357Z,63.18
2023-02-27T02:44:27.905Z,62.22
2023-02-27T02:47:34.401Z,61.87
2023-02-27T02:50:43.314Z,61.76
2023-02-27T02:54:00.118Z,62.01
2023-02-27T02:57:17.841Z,62.67
2023-02-27T03:00:25.114Z,61.55
2023-02-27T03:03:28.817Z,61.25
2023-02-27T03:06:38.795Z,61.44
2023-02-27T03:09:54.673Z,61.17
2023-02-27T03:13:00.936Z,61.48
2023-02-27T03:16:14.577Z,61.05
2023-02-27T03:19:42.255Z,62.28
2023-02-27T03:22:49.662Z,60.66
2023-02-27T03:26:03.679Z,60.97
2023-02-27T03:29:23.725Z,60.56
2023-02-27T03:32:37.335Z,61.16
2023-02-27T03:35:58.444Z,60.56
2023-02-27T03:39:14.206Z,60.99
2023-02-27T03:42:35.119Z,60.12
2023-02-27T03:45:45.675Z,60.31
2023-02-27T03:48:48.566Z,59.76
2023-02-27T03:51:58.791Z,59.87
2023-02-27T03:55:13.704Z,59.82
2023-02-27T03:58:22.617Z,58.59
2023-02-27T04:01:27.073Z,59.30
2023-02-27T04:04:39.566Z,58.66
2023-02-27T04:07:45.804Z,58.64
2023-02-27T04:10:52.612Z,58.86
2023-02-27T04:14:03.685Z,59.50
2023-02-27T04:17:16.510Z,58.15
2023-02-27T04:20:41.780Z,58.27
2023-02-27T04:24:07.135Z,58.14
2023-02-27T04:27:10.615Z,57.51
2023-02-27T04:30:31.318Z,58.30
2023-02-27T04:33:47.758Z,57.60
2023-02-27T04:37:12.416Z,57.98
2023-02-27T04:40:38.855Z,57.31
2023-02-27T04:43:43.724Z,57.67
2023-02-27T04:46:49.098Z,57.74
2023-02-27T04:50:00.929Z,57.44
2023-02-27T04:53:08.628Z,57.27
2023-02-27T04:56:18.894Z,57.16
2023-02-27T04:59:49.109Z,57.34
2023-02-27T05:03:27.151Z,57.10
2023-02-27T05:06:36.572Z,57.27
2023-02-27T05:09:54.407Z,58.02
2023-02-27T05:13:07.542Z,58.50
2023-02-27T05:16:21.007Z,57.94
2023-02-27T05:19:23.557Z,57.17
2023-02-27T05:22:52.977Z,58.34
2023-02-27T05:26:07.607Z,57.59
2023-02-27T05:29:16.967Z,57.24
2023-02-27T05:32:21.093Z,57.74
2023-02-27T05:35:55.781Z,57.59
2023-02-27T05:39:06.554Z,57.99
2023-02-27T05:42:21.844Z,56.83
2023-02-27T05:45:40.113Z,56.96
2023-02-27T05:48:49.353Z,56.89
2023-02-27T05:52:00.120Z,56.90
2023-02-27T05:55:07.601Z,56.99
2023-02-27T05:58:20.845Z,56.74
2023-02-27T06:01:31.871Z,56.68
2023-02-27T06:04:40.728Z,56.41
2023-02-27T06:07:44.316Z,56.70
2023-02-27T06:10:52.222Z,56.78
2023-02-27T06:14:00.647Z,56.88
2023-02-27T06:17:03.898Z,55.73
2023-02-27T06:20:16.448Z,55.35
2023-02-27T06:23:24.967Z,56.09
2023-02-27T06:29:51.690Z,55.47
2023-02-27T06:44:14.091Z,54.08
2023-02-27T06:58:45.844Z,53.08
2023-02-27T07:02:02.041Z,52.96
2023-02-27T07:05:51.423Z,52.20
2023-02-27T07:09:15.638Z,52.99
2023-02-27T07:12:20.548Z,51.65
2023-02-27T07:15:28.254Z,52.03
2023-02-27T07:18:54.097Z,52.32
2023-02-27T07:22:43.577Z,51.84
2023-02-27T07:25:48.689Z,51.88
2023-02-27T07:29:11.845Z,50.85
2023-02-27T07:32:17.116Z,51.66
2023-02-27T07:35:23.009Z,51.20
2023-02-27T07:38:25.355Z,50.37
2023-02-27T07:41:36.920Z,50.31
2023-02-27T07:44:41.186Z,50.77
2023-02-27T07:47:54.418Z,50.67
2023-02-27T07:51:07.623Z,49.65
2023-02-27T07:54:19.087Z,49.93
2023-02-27T07:57:25.676Z,49.46
2023-02-27T08:00:48.530Z,49.02
2023-02-27T08:04:03.094Z,49.12
2023-02-27T08:07:06.981Z,49.70
2023-02-27T08:10:09.487Z,48.87
2023-02-27T08:13:35.941Z,48.61
2023-02-27T08:16:46.409Z,49.31
2023-02-27T08:19:55.092Z,49.21
2023-02-27T08:23:06.621Z,49.92
2023-02-27T08:26:11.853Z,49.62
2023-02-27T08:29:21.988Z,50.38
2023-02-27T08:32:47.852Z,50.94
2023-02-27T08:36:01.881Z,49.26
2023-02-27T08:39:20.354Z,48.84
2023-02-27T08:42:24.213Z,49.89
2023-02-27T08:45:56.777Z,49.64
2023-02-27T08:48:59.305Z,49.94
2023-02-27T08:52:10.798Z,47.99
2023-02-27T08:55:15.142Z,47.61
2023-02-27T08:58:19.121Z,47.80
2023-02-27T09:01:36.131Z,47.12
2023-02-27T09:04:58.852Z,48.06
2023-02-27T09:08:05.372Z,47.95
2023-02-27T09:11:10.809Z,45.89
2023-02-27T09:14:22.416Z,46.60
2023-02-27T09:17:28.185Z,47.13
2023-02-27T09:20:48.917Z,48.41
2023-02-27T09:24:20.292Z,46.03
2023-02-27T09:27:30.075Z,45.63
2023-02-27T09:31:02.341Z,45.45
2023-02-27T09:34:26.455Z,48.21
2023-02-27T09:37:34.946Z,47.44
2023-02-27T09:40:47.067Z,46.37
2023-02-27T09:44:04.780Z,47.75
2023-02-27T09:50:43.049Z,46.23
2023-02-27T09:53:50.418Z,46.35
2023-02-27T09:56:56.249Z,46.48
2023-02-27T10:00:03.048Z,46.43
2023-02-27T10:03:26.847Z,45.35
2023-02-27T10:06:49.525Z,43.70
2023-02-27T10:10:02.331Z,45.00
2023-02-27T10:13:17.509Z,47.87
2023-02-27T10:16:23.016Z,45.61
2023-02-27T10:19:35.792Z,44.13
2023-02-27T10:22:43.161Z,44.21
2023-02-27T10:25:49.020Z,46.64
2023-02-27T10:28:53.665Z,44.91
2023-02-27T10:32:07.538Z,43.96
2023-02-27T10:35:30.692Z,44.24
2023-02-27T10:38:35.986Z,44.56
2023-02-27T10:41:41.675Z,42.37
2023-02-27T10:44:45.664Z,43.48
2023-02-27T10:47:49.138Z,44.97
2023-02-27T10:50:52.726Z,44.08
2023-02-27T10:54:15.262Z,44.22
2023-02-27T10:57:40.930Z,45.55
2023-02-27T11:00:48.693Z,45.18
2023-02-27T11:03:57.684Z,43.90
2023-02-27T11:07:03.419Z,43.53
2023-02-27T11:10:08.753Z,41.72
2023-02-27T11:13:21.912Z,42.48
2023-02-27T11:16:25.380Z,43.35
2023-02-27T11:19:36.717Z,42.92
2023-02-27T11:22:43.073Z,44.73
2023-02-27T11:25:47.142Z,42.32
2023-02-27T11:29:06.224Z,43.08
2023-02-27T11:32:16.363Z,43.72
2023-02-27T11:35:25.162Z,44.83
2023-02-27T11:38:30.034Z,44.90
2023-02-27T11:41:37.370Z,44.82
2023-02-27T11:44:51.589Z,44.80
2023-02-27T11:48:01.449Z,44.15
2023-02-27T11:51:15.178Z,43.80
2023-02-27T11:54:18.259Z,43.39
2023-02-27T11:57:23.117Z,43.70
2023-02-27T12:00:39.603Z,43.26
2023-02-27T12:03:54.003Z,42.80
2023-02-27T12:07:05.254Z,41.99
2023-02-27T12:10:15.297Z,41.57
2023-02-27T12:13:24.647Z,41.94
2023-02-27T12:16:55.059Z,42.73
2023-02-27T12:20:01.659Z,42.39
2023-02-27T12:23:10.355Z,41.03
2023-02-27T12:26:32.800Z,40.94
2023-02-27T12:29:39.476Z,41.17
2023-02-27T12:32:43.501Z,41.30
2023-02-27T12:35:50.487Z,42.02
2023-02-27T12:38:54.992Z,42.93
2023-02-27T12:42:09.468Z,41.37
2023-02-27T12:45:29.076Z,42.58
2023-02-27T12:48:31.977Z,41.44
2023-02-27T12:51:48.728Z,42.03
2023-02-27T12:55:02.795Z,44.13
2023-02-27T12:58:15.683Z,41.64
2023-02-27T13:01:42.658Z,42.22
2023-02-27T13:05:09.508Z,41.65
2023-02-27T13:08:29.994Z,40.59
2023-02-27T13:11:33.300Z,42.24
2023-02-27T13:14:36.366Z,43.07
2023-02-27T13:17:43.841Z,43.15
2023-02-27T13:20:57.935Z,44.06
2023-02-27T13:24:16.207Z,44.84
2023-02-27T13:27:19.369Z,43.94
2023-02-27T13:30:24.524Z,45.10
2023-02-27T13:33:34.079Z,44.23
2023-02-27T13:36:43.287Z,44.14
2023-02-27T13:39:53.268Z,43.75
2023-02-27T13:43:01.038Z,43.15
2023-02-27T13:46:22.674Z,43.24
2023-02-27T13:49:29.926Z,43.72
2023-02-27T13:52:39.534Z,43.60
2023-02-27T13:55:44.956Z,43.17
2023-02-27T13:58:48.225Z,44.27
2023-02-27T14:02:14.101Z,44.29
2023-02-27T14:05:18.280Z,44.04
2023-02-27T14:08:25.723Z,43.43
2023-02-27T14:11:35.009Z,43.38
2023-02-27T14:14:46.201Z,42.68
2023-02-27T14:17:54.405Z,42.61
2023-02-27T14:21:00.364Z,43.29
2023-02-27T14:24:03.301Z,42.96
2023-02-27T14:27:16.188Z,43.00
2023-02-27T14:30:36.496Z,43.26
2023-02-27T14:33:51.026Z,44.02
2023-02-27T14:37:01.298Z,45.65
2023-02-27T14:40:12.365Z,44.54
2023-02-27T14:43:30.915Z,44.50
2023-02-27T14:46:40.003Z,45.88
2023-02-27T14:49:43.637Z,45.34
2023-02-27T14:52:46.226Z,45.30
2023-02-27T14:55:59.040Z,45.05
2023-02-27T14:59:04.524Z,45.34
2023-02-27T15:02:32.044Z,45.16
2023-02-27T15:05:36.691Z,45.59
2023-02-27T15:08:45.259Z,46.18
2023-02-27T15:11:57.439Z,46.25
2023-02-27T15:15:12.626Z,46.81
2023-02-27T15:18:17.607Z,46.13
2023-02-27T15:21:23.948Z,46.99
2023-02-27T15:24:40.633Z,46.44
2023-02-27T15:27:53.510Z,46.83
2023-02-27T15:30:58.800Z,46.71
2023-02-27T15:34:04.700Z,46.14
2023-02-27T15:37:07.805Z,47.05
2023-02-27T15:40:19.119Z,48.86
2023-02-27T15:43:22.925Z,46.84
2023-02-27T15:46:32.196Z,46.77
2023-02-27T15:49:35.223Z,49.40
2023-02-27T15:52:49.890Z,48.31
2023-02-27T15:56:01.378Z,47.43
2023-02-27T15:59:04.791Z,47.27
2023-02-27T16:02:14.928Z,47.43
2023-02-27T16:05:24.667Z,47.14
2023-02-27T16:08:31.246Z,48.63
2023-02-27T16:11:38.833Z,49.02
2023-02-27T16:14:43.477Z,48.85
2023-02-27T16:18:09.400Z,48.36
2023-02-27T16:21:20.990Z,48.84
2023-02-27T16:24:32.433Z,50.05
2023-02-27T16:27:36.498Z,49.62
2023-02-27T16:30:39.184Z,50.18
2023-02-27T16:33:44.516Z,50.31
2023-02-27T16:37:00.957Z,50.54
2023-02-27T16:40:14.901Z,52.62
2023-02-27T16:43:21.249Z,51.42
2023-02-27T16:46:24.944Z,51.72
2023-02-27T16:49:29.567Z,51.81
2023-02-27T16:52:35.148Z,51.39
2023-02-27T16:55:44.514Z,51.66
2023-02-27T16:58:47.574Z,50.29
2023-02-27T17:01:50.638Z,50.76
2023-02-27T17:04:54.563Z,50.30
2023-02-27T17:07:57.355Z,51.00
2023-02-27T17:11:04.817Z,50.35
2023-02-27T17:14:10.309Z,49.59
2023-02-27T17:17:14.326Z,51.20
2023-02-27T17:20:17.073Z,49.27
2023-02-27T17:23:22.820Z,50.04
2023-02-27T17:26:29.331Z,50.52
2023-02-27T17:29:34.668Z,51.14
2023-02-27T17:32:40.247Z,52.38
2023-02-27T17:35:44.219Z,52.28
2023-02-27T17:38:50.137Z,53.03
2023-02-27T17:41:55.802Z,53.91
2023-02-27T17:44:59.702Z,55.92
2023-02-27T17:48:02.619Z,55.43
2023-02-27T17:51:06.540Z,55.75
2023-02-27T17:54:09.601Z,56.41
2023-02-27T17:57:14.329Z,55.88
2023-02-27T18:00:19.548Z,56.79
2023-02-27T18:03:23.152Z,57.05
2023-02-27T18:06:26.280Z,58.43
2023-02-27T18:09:29.074Z,58.20
2023-02-27T18:12:39.521Z,58.80
2023-02-27T18:15:42.229Z,58.84
2023-02-27T18:18:47.641Z,59.74
2023-02-27T18:21:53.700Z,60.57
2023-02-27T18:25:00.593Z,59.94
2023-02-27T18:28:05.616Z,60.38
2023-02-27T18:31:20.388Z,59.70
2023-02-27T18:34:25.157Z,58.38
2023-02-27T18:37:33.567Z,56.53
2023-02-27T18:40:41.337Z,56.90
2023-02-27T18:43:48.014Z,58.72
2023-02-27T18:46:51.736Z,60.61
2023-02-27T18:49:59.008Z,58.26
2023-02-27T18:53:02.612Z,59.92
2023-02-27T18:56:10.853Z,59.49
2023-02-27T18:59:14.507Z,58.48
2023-02-27T19:02:20.096Z,58.50
2023-02-27T19:05:25.518Z,60.04
2023-02-27T19:08:32.303Z,59.56
2023-02-27T19:11:35.899Z,58.34
2023-02-27T19:14:40.739Z,58.75
2023-02-27T19:17:44.449Z,59.83
2023-02-27T19:20:48.414Z,58.85
2023-02-27T19:23:52.026Z,60.82
2023-02-27T19:26:58.237Z,59.40
2023-02-27T19:30:06.338Z,60.40
2023-02-27T19:33:13.930Z,61.04
2023-02-27T19:36:18.984Z,60.03
2023-02-27T19:39:25.136Z,60.83
2023-02-27T19:42:30.600Z,61.74
2023-02-27T19:45:39.816Z,65.40
2023-02-27T19:48:53.965Z,61.68
2023-02-27T19:51:56.763Z,61.49
2023-02-27T19:55:01.365Z,60.82
2023-02-27T19:58:06.828Z,61.59
2023-02-27T20:01:15.055Z,60.18
2023-02-27T20:04:24.762Z,60.38
2023-02-27T20:07:30.755Z,61.72
2023-02-27T20:10:35.848Z,62.26
2023-02-27T20:13:41.532Z,61.60
2023-02-27T20:16:52.177Z,63.66
2023-02-27T20:19:57.962Z,62.95
2023-02-27T20:23:10.476Z,63.28
2023-02-27T20:26:20.585Z,62.55
2023-02-27T20:29:30.382Z,63.42
2023-02-27T20:32:36.462Z,62.73
2023-02-27T20:35:43.503Z,61.44
2023-02-27T20:38:49.952Z,61.24
2023-02-27T20:41:53.904Z,60.17
2023-02-27T20:44:57.714Z,60.71
2023-02-27T20:48:00.164Z,60.26
2023-02-27T20:51:13.021Z,60.41
2023-02-27T20:54:21.441Z,62.16
2023-02-27T20:57:26.488Z,60.76
2023-02-27T21:00:38.053Z,61.70
2023-02-27T21:03:42.392Z,62.55
2023-02-27T21:06:47.828Z,62.49
2023-02-27T21:09:52.864Z,61.30
2023-02-27T21:12:59.157Z,60.47
2023-02-27T21:16:05.655Z,61.43
2023-02-27T21:19:13.747Z,62.54
2023-02-27T21:26:18.737Z,63.42
2023-02-27T21:29:22.272Z,64.66
2023-02-27T21:32:25.647Z,62.93
2023-02-27T21:35:29.089Z,63.50
2023-02-27T21:38:32.563Z,63.75
2023-02-27T21:41:43.583Z,64.68
2023-02-27T21:44:53.299Z,66.41
2023-02-27T21:47:57.816Z,64.79
2023-02-27T21:51:05.845Z,63.70
2023-02-27T21:54:15.283Z,66.07
2023-02-27T21:57:24.836Z,66.49
2023-02-27T22:00:34.798Z,65.16
2023-02-27T22:03:39.074Z,64.09
2023-02-27T22:06:41.853Z,63.72
2023-02-27T22:09:56.971Z,64.39
2023-02-27T22:13:02.796Z,64.06
2023-02-27T22:16:09.735Z,63.28
2023-02-27T22:19:15.046Z,62.74
2023-02-27T22:22:18.412Z,63.09
2023-02-27T22:25:28.081Z,63.15
2023-02-27T22:28:33.401Z,64.17
2023-02-27T22:31:39.219Z,62.36
2023-02-27T22:34:43.274Z,63.52
2023-02-27T22:38:04.690Z,62.61
2023-02-27T22:41:14.957Z,62.24
2023-02-27T22:44:20.714Z,62.87
2023-02-27T22:47:28.638Z,63.75
2023-02-27T22:50:30.992Z,64.20
2023-02-27T22:53:45.308Z,61.05
2023-02-27T22:56:58.015Z,61.24
2023-02-27T23:00:16.929Z,62.16
2023-02-27T23:03:20.830Z,62.66
2023-02-27T23:06:39.091Z,61.90
2023-02-27T23:09:49.294Z,61.79
2023-02-27T23:13:04.510Z,61.99
2023-02-27T23:16:14.058Z,63.24
2023-02-27T23:19:18.610Z,63.38
2023-02-27T23:22:29.675Z,64.78
2023-02-27T23:25:40.366Z,64.14
2023-02-27T23:28:58.079Z,65.16
2023-02-27T23:32:12.697Z,65.83
2023-02-27T23:35:20.425Z,65.49
2023-02-27T23:38:25.620Z,66.31
2023-02-27T23:41:31.307Z,66.28
2023-02-27T23:44:55.812Z,65.45
2023-02-27T23:47:59.417Z,65.26
2023-02-27T23:51:08.033Z,64.94
2023-02-27T23:54:14.838Z,64.87
2023-02-27T23:57:27.927Z,64.08
